• Join FlightAware (Why Join?)
  • Login
  • US Flag 
03:19AM EST


 

Airport Tracker/Info


-or-


 

Live Flight TrackerFlight Track Log ✈ SWA2114 ✈ 13-Apr-2013 ✈ KECP - KHOU

Flight Track Log - Related Links

Times and Time Zones

All times are in EDT time to prevent confusion due to time zone crossing. See the SWA2114 flight status page for this flight to view local times or setup timezone preferences in your user account.

Time Position Orientation Groundspeed Altitude Reporting Facility
EDT Latitude Longitude Course Direction KTS MPH feet Rate Location/Type
01:38PM 30.4742 -85.8547 274° West 223 257 5,800  Level Jacksonville Center
01:39PM 30.5356 -85.9072 324° Northwest 247 284 9,900 3,060 Climbing Jacksonville Center
01:40PM 30.6114 -85.9675 326° Northwest 287 330 11,900 3,060 Climbing Jacksonville Center
01:41PM 30.6678 -86.0586 306° West 333 383 16,100 3,600 Climbing Jacksonville Center
01:42PM 30.7746 -86.0997 330° Northwest  Level FlightAware Approximate
01:42PM 30.6964 -86.1636 288° West 333 383 19,100  Level Jacksonville Center
01:43PM 30.8009 -86.1806 274° West  Level FlightAware Approximate
01:43PM 30.7247 -86.2806 286° West 354 407 21,900  Level Jacksonville Center
01:44PM 30.7547 -86.4000 286° West 372 428 24,500 2,400 Climbing Jacksonville Center
01:45PM 30.7639 -86.5236 275° West 383 441 26,700 2,100 Climbing Jacksonville Center
01:46PM 30.7622 -86.6542 269° West 394 453 28,800 2,100 Climbing Jacksonville Center
01:47PM 30.7581 -86.7869 268° West 404 465 30,900 2,100 Climbing Jacksonville Center
01:48PM 30.7561 -86.9172 269° West 404 465 33,100 2,160 Climbing Jacksonville Center
01:49PM 30.7558 -87.0550 270° West 399 459 35,300 1,920 Climbing Jacksonville Center
01:50PM 30.7536 -87.1856 269° West 399 459 37,000 1,260 Climbing Jacksonville Center
01:52PM 30.7469 -87.4803 269° West 374 430 39,700 840 Climbing Houston Center
01:53PM 30.7453 -87.6003 269° West 371 427 40,000 120 Climbing Houston Center
01:54PM 30.7375 -87.7292 266° West 385 443 40,000  Level Houston Center
01:55PM 30.7006 -87.8464 250° West 388 447 40,000  Level Houston Center
01:56PM 30.6669 -87.9622 251° West 388 447 40,000  Level Houston Center
01:57PM 30.6239 -88.1053 251° West 389 448 40,000  Level Houston Center
01:58PM 30.5881 -88.2242 251° West 388 447 40,000  Level Houston Center
01:59PM 30.5528 -88.3431 251° West 388 447 40,000  Level Houston Center
02:01PM 30.5172 -88.4614 251° West 388 447 40,000  Level Houston Center
02:02PM 30.4833 -88.5786 251° West 385 443 40,000  Level Houston Center
02:03PM 30.4478 -88.6939 250° West 381 438 40,000  Level Houston Center
02:04PM 30.4133 -88.8081 251° West 378 435 40,000  Level Houston Center
02:05PM 30.3725 -88.9442 251° West 374 430 40,000  Level Houston Center
02:06PM 30.3389 -89.0553 251° West 373 429 40,000  Level Houston Center
02:07PM 30.3044 -89.1683 251° West 374 430 40,000  Level Houston Center
02:08PM 30.2706 -89.2797 251° West 368 423 40,000  Level Houston Center
02:09PM 30.2361 -89.3933 251° West 370 426 40,000  Level Houston Center
02:10PM 30.2000 -89.5058 250° West 371 427 40,000  Level Houston Center
02:11PM 30.1567 -89.6433 250° West 374 430 40,000  Level Houston Center
02:12PM 30.1211 -89.7586 250° West 376 433 40,000  Level Houston Center
02:13PM 30.0869 -89.8711 251° West 369 425 40,000  Level Houston Center
02:14PM 30.0525 -89.9828 250° West 367 422 40,000  Level Houston Center
02:15PM 30.0172 -90.0931 250° West 365 420 40,000  Level Houston Center
02:16PM 29.9831 -90.2008 250° West 360 414 40,000  Level Houston Center
02:17PM 29.9497 -90.3086 250° West 358 412 40,000  Level Houston Center
02:18PM 29.9156 -90.4150 250° West 355 409 40,000  Level Houston Center
02:19PM 29.8747 -90.5428 250° West 355 409 40,000  Level Houston Center
02:20PM 29.8403 -90.6500 250° West 356 410 40,000  Level Houston Center
02:21PM 29.8072 -90.7556 250° West 353 406 40,000  Level Houston Center
02:22PM 29.7731 -90.8611 250° West 354 407 40,000  Level Houston Center
02:23PM 29.7386 -90.9667 249° West 354 407 40,000  Level Houston Center
02:24PM 29.7039 -91.0719 249° West 353 406 40,000  Level Houston Center
02:25PM 29.6631 -91.1978 250° West 350 403 40,000  Level Houston Center
02:26PM 29.6286 -91.3025 249° West 349 402 40,000  Level Houston Center
02:27PM 29.5950 -91.4075 250° West 350 403 40,000  Level Houston Center
02:28PM 29.5608 -91.5119 249° West 351 404 40,000  Level Houston Center
02:29PM 29.5258 -91.6175 249° West 352 405 40,000  Level Houston Center
02:31PM 29.4903 -91.7244 249° West 350 403 40,000  Level Houston Center
02:32PM 29.4497 -91.8503 250° West 349 402 40,000  Level Houston Center
02:33PM 29.4153 -91.9542 249° West 349 402 40,000  Level Houston Center
02:34PM 29.3919 -92.0608 256° West 346 398 40,000  Level Houston Center
02:35PM 29.3842 -92.1725 265° West 350 403 40,000  Level Houston Center
02:36PM 29.3753 -92.2839 265° West 351 404 40,000  Level Houston Center
02:37PM 29.3661 -92.3936 265° West 348 400 40,000  Level Houston Center
02:38PM 29.3558 -92.5272 265° West 351 404 40,000  Level Houston Center
02:39PM 29.3469 -92.6364 265° West 346 398 40,000  Level Houston Center
02:40PM 29.3381 -92.7492 265° West 354 407 40,000  Level Houston Center
02:41PM 29.3303 -92.8606 265° West 350 403 40,000  Level Houston Center
02:42PM 29.3208 -92.9722 264° West 352 405 40,000 -480 Level Houston Center
02:43PM 29.3117 -93.0828 265° West 350 403 39,100 -1,800 Descending Houston Center
02:44PM 29.3006 -93.2119 264° West 342 394 36,300 -2,760 Descending Houston Center
02:45PM 29.2919 -93.3197 265° West 340 391 33,400 -2,640 Descending Houston Center
02:46PM 29.2819 -93.4367 264° West 355 409 30,900 -2,340 Descending Houston Center
02:47PM 29.2725 -93.5561 265° West 369 425 28,600 -2,280 Descending Houston Center
02:48PM 29.2611 -93.6708 264° West 367 422 26,300 -2,160 Descending Houston Center
02:49PM 29.2625 -93.7836 271° West 361 415 24,200 -2,040 Descending Houston Center
02:50PM 29.2642 -93.8939 271° West 352 405 22,100 -2,280 Descending Houston Center
02:51PM 29.2644 -94.0306 270° West 357 411 19,600 -2,280 Descending Houston Center
02:52PM 29.2661 -94.1400 271° West 347 399 17,500 -2,160 Descending Houston Center
02:53PM 29.2656 -94.2650 270° West 350 403 15,200 -2,160 Descending Houston Center
02:54PM 29.2656 -94.3489 270° West 345 397 13,600 -1,740 Descending Houston Center
02:55PM 29.2653 -94.4519 270° West 326 375 12,000 -1,140 Descending Houston Center
02:56PM 29.2978 -94.5461 292° West 324 373 11,400 -660 Descending Houston Center
02:56PM 29.3033 -94.5575 299° West 329 379 11,200 -1,020 Descending Houston Center
02:57PM 29.3381 -94.6344 297° West 306 352 10,400 -1,080 Descending Houston Center
02:57PM 29.3536 -94.6586 306° West 305 351 10,100 -360 Descending Houston Center
02:58PM 29.3847 -94.7269 298° West 319 367 10,000 -120 Descending Houston Center
02:58PM 29.3969 -94.7472 305° West 314 361 10,000  Level Houston Center
02:59PM 29.4317 -94.8217 298° West 319 367 10,000  Level Houston Center
02:59PM 29.4411 -94.8364 306° West 322 371 10,000  Level Houston Center
03:00PM 29.4758 -94.9100 298° West 321 369 10,000  Level Houston Center
03:00PM 29.4842 -94.9256 302° West 320 368 10,000 -1,200 Level Houston Center
03:01PM 29.5178 -94.9958 299° West 308 354 8,800 -1,500 Descending Houston Center
03:02PM 29.5256 -95.0097 303° West 307 353 8,500 -1,620 Descending Houston Center
03:02PM 29.5619 -95.0867 299° West 298 343 7,200 -1,500 Descending Houston Center
03:03PM 29.5664 -95.0933 307° West 300 345 7,000 -1,320 Descending Houston Center
03:03PM 29.5917 -95.1575 294° West 297 342 6,000 -1,020 Descending Houston Center
03:04PM 29.5875 -95.1822 259° West 290 334 6,000 -720 Level Houston Center
03:04PM 29.5633 -95.2353 242° Southwest 232 267 5,300 -1,080 Descending Houston Center
03:05PM 29.5519 -95.2506 229° Southwest 245 282 4,900 -1,500 Descending Houston Center
03:05PM 29.5200 -95.2911 228° Southwest 227 261 3,800 -1,260 Descending Houston Center
03:06PM 29.5208 -95.3181 272° West 218 251 3,600 -1,020 Descending Houston Center
03:06PM 29.5414 -95.3414 315° West 162 186 2,800 -1,500 Descending Houston Center
03:07PM 29.5583 -95.3517 332° Northwest 182 209 2,100 -1,200 Descending Houston Center
03:07PM 29.5861 -95.3456 11° North 154 177 1,600 -900 Descending Houston Center
03:08PM 29.5975 -95.3319 46° Northeast 169 194 1,200 -900 Descending Houston Center
03:08PM 29.6144 -95.3133 44° Northeast 136 157 700 -780 Descending Houston Center
03:09PM 29.6258 -95.3011 43° Northeast 151 174 400 -360 Descending Houston Center
03:10PM 29.6511 -95.2725 45° Northeast 146 168 200 -240 Descending Houston Center